createdAt,value
2018-03-11T00:02:20.734Z,10.40
2018-03-11T00:04:48.284Z,10.40
2018-03-11T00:07:16.616Z,10.30
2018-03-11T00:09:44.190Z,10.30
2018-03-11T00:12:12.511Z,10.20
2018-03-11T00:14:40.107Z,10.20
2018-03-11T00:17:07.648Z,10.10
2018-03-11T00:19:35.229Z,10.10
2018-03-11T00:22:02.822Z,10.10
2018-03-11T00:24:31.147Z,10.00
2018-03-11T00:26:58.692Z,10.00
2018-03-11T00:29:27.619Z,10.00
2018-03-11T00:31:55.975Z,10.00
2018-03-11T00:34:24.864Z,9.90
2018-03-11T00:36:53.166Z,9.80
2018-03-11T00:39:23.083Z,9.90
2018-03-11T00:41:52.664Z,9.90
2018-03-11T00:44:20.185Z,9.90
2018-03-11T00:46:48.078Z,9.90
2018-03-11T00:49:16.431Z,9.80
2018-03-11T00:51:44.736Z,9.80
2018-03-11T00:54:12.329Z,9.80
2018-03-11T00:56:40.635Z,9.70
2018-03-11T00:59:08.264Z,9.70
2018-03-11T01:01:35.822Z,9.70
2018-03-11T01:04:04.144Z,9.70
2018-03-11T01:06:32.858Z,9.40
2018-03-11T01:09:00.399Z,9.60
2018-03-11T01:11:27.951Z,9.60
2018-03-11T01:13:56.360Z,9.50
2018-03-11T01:16:25.351Z,9.50
2018-03-11T01:18:54.532Z,9.50
2018-03-11T01:21:22.082Z,9.40
2018-03-11T01:23:50.580Z,9.40
2018-03-11T01:26:18.111Z,9.40
2018-03-11T01:28:45.638Z,9.40
2018-03-11T01:31:13.236Z,9.40
2018-03-11T01:33:40.770Z,9.30
2018-03-11T01:36:08.395Z,9.30
2018-03-11T01:38:35.957Z,9.30
2018-03-11T01:41:03.512Z,9.30
2018-03-11T01:43:31.854Z,9.20
2018-03-11T01:45:59.387Z,9.20
2018-03-11T01:48:26.983Z,9.20
2018-03-11T01:50:55.344Z,9.20
2018-03-11T01:53:22.877Z,9.10
2018-03-11T01:55:50.483Z,9.10
2018-03-11T01:58:18.822Z,9.00
2018-03-11T02:00:46.420Z,9.00
2018-03-11T02:03:13.984Z,9.00
2018-03-11T02:05:41.535Z,8.70
2018-03-11T02:08:09.098Z,8.90
2018-03-11T02:10:36.648Z,8.90
2018-03-11T02:13:05.002Z,8.90
2018-03-11T02:15:32.598Z,8.90
2018-03-11T02:18:00.922Z,8.80
2018-03-11T02:20:29.301Z,8.80
2018-03-11T02:22:56.846Z,8.80
2018-03-11T02:25:25.849Z,8.80
2018-03-11T02:27:53.381Z,8.80
2018-03-11T02:30:20.932Z,8.70
2018-03-11T02:32:48.519Z,8.70
2018-03-11T02:35:16.057Z,8.70
2018-03-11T02:37:43.949Z,8.70
2018-03-11T02:40:12.276Z,8.70
2018-03-11T02:42:40.595Z,8.70
2018-03-11T02:45:08.220Z,8.70
2018-03-11T02:47:36.576Z,8.70
2018-03-11T02:50:04.138Z,8.70
2018-03-11T02:52:32.440Z,8.60
2018-03-11T02:55:00.004Z,8.60
2018-03-11T02:57:27.588Z,8.60
2018-03-11T02:59:56.236Z,8.50
2018-03-11T03:02:23.784Z,8.50
2018-03-11T03:04:52.112Z,8.50
2018-03-11T03:07:21.294Z,8.50
2018-03-11T03:09:48.806Z,8.50
2018-03-11T03:12:16.374Z,8.40
2018-03-11T03:14:43.919Z,8.40
2018-03-11T03:17:11.472Z,8.40
2018-03-11T03:19:39.054Z,8.30
2018-03-11T03:22:07.574Z,8.30
2018-03-11T03:24:36.362Z,8.10
2018-03-11T03:27:03.941Z,8.10
2018-03-11T03:29:31.486Z,8.10
2018-03-11T03:31:59.052Z,8.10
2018-03-11T03:34:26.602Z,8.00
2018-03-11T03:36:54.940Z,8.00
2018-03-11T03:39:22.484Z,8.00
2018-03-11T03:41:50.075Z,8.00
2018-03-11T03:44:17.613Z,8.00
2018-03-11T03:46:45.158Z,8.00
2018-03-11T03:49:12.716Z,8.00
2018-03-11T03:51:40.256Z,8.00
2018-03-11T03:54:07.846Z,8.10
2018-03-11T03:56:36.729Z,8.00
2018-03-11T03:59:05.888Z,8.00
2018-03-11T04:01:33.422Z,8.00
2018-03-11T04:04:01.010Z,8.00
2018-03-11T04:06:28.635Z,8.00
2018-03-11T04:08:56.995Z,7.90
2018-03-11T04:11:25.331Z,8.00
2018-03-11T04:13:52.880Z,7.90
2018-03-11T04:16:20.464Z,8.10
2018-03-11T04:18:48.040Z,8.10
2018-03-11T04:21:15.795Z,8.10
2018-03-11T04:23:43.337Z,8.10
2018-03-11T04:26:10.929Z,8.00
2018-03-11T04:28:39.400Z,8.00
2018-03-11T04:31:08.073Z,8.00
2018-03-11T04:33:36.777Z,8.00
2018-03-11T04:36:05.355Z,7.80
2018-03-11T04:38:32.942Z,7.90
2018-03-11T04:41:00.463Z,7.90
2018-03-11T04:43:28.061Z,8.00
2018-03-11T04:45:55.621Z,8.00
2018-03-11T04:48:23.194Z,8.00
2018-03-11T04:50:50.734Z,8.00
2018-03-11T04:53:18.309Z,8.10
2018-03-11T04:55:46.812Z,8.00
2018-03-11T04:58:14.384Z,8.00
2018-03-11T05:00:42.362Z,8.00
2018-03-11T05:03:10.701Z,8.10
2018-03-11T05:05:38.273Z,8.00
2018-03-11T05:08:06.555Z,8.00
2018-03-11T05:10:34.115Z,8.00
2018-03-11T05:13:01.716Z,8.00
2018-03-11T05:15:29.276Z,8.00
2018-03-11T05:17:57.195Z,8.00
2018-03-11T05:20:25.502Z,8.00
2018-03-11T05:22:55.025Z,8.00
2018-03-11T05:25:22.661Z,8.00
2018-03-11T05:27:50.210Z,8.00
2018-03-11T05:30:17.779Z,8.00
2018-03-11T05:32:46.110Z,8.10
2018-03-11T05:35:13.997Z,8.10
2018-03-11T05:37:42.327Z,8.10
2018-03-11T05:40:10.656Z,8.10
2018-03-11T05:42:38.630Z,8.10
2018-03-11T05:45:07.062Z,8.10
2018-03-11T05:47:34.927Z,8.10
2018-03-11T05:50:03.285Z,8.10
2018-03-11T05:52:32.044Z,8.10
2018-03-11T05:54:59.603Z,8.10
2018-03-11T05:57:27.961Z,8.00
2018-03-11T05:59:56.396Z,8.00
2018-03-11T06:02:24.019Z,8.00
2018-03-11T06:04:51.699Z,7.90
2018-03-11T06:07:19.267Z,8.00
2018-03-11T06:09:47.688Z,8.10
2018-03-11T06:12:15.241Z,8.10
2018-03-11T06:14:42.893Z,8.10
2018-03-11T06:17:10.590Z,8.20
2018-03-11T06:19:38.140Z,8.30
2018-03-11T06:22:06.496Z,8.40
2018-03-11T06:24:34.119Z,8.50
2018-03-11T06:27:01.698Z,8.60
2018-03-11T06:29:29.370Z,8.90
2018-03-11T06:31:57.708Z,9.50
2018-03-11T06:34:25.568Z,9.40
2018-03-11T06:36:53.213Z,9.70
2018-03-11T06:39:20.761Z,9.90
2018-03-11T06:41:48.347Z,10.00
2018-03-11T06:44:15.899Z,10.20
2018-03-11T06:46:43.482Z,10.40
2018-03-11T06:49:11.009Z,10.60
2018-03-11T06:51:38.555Z,11.00
2018-03-11T06:54:07.117Z,11.40
2018-03-11T06:56:35.552Z,11.50
2018-03-11T06:59:03.149Z,11.70
2018-03-11T07:01:31.514Z,11.70
2018-03-11T07:03:59.881Z,11.70
2018-03-11T07:06:27.425Z,11.70
2018-03-11T07:08:54.998Z,11.80
2018-03-11T07:11:22.549Z,11.80
2018-03-11T07:13:50.119Z,11.80
2018-03-11T07:16:18.457Z,12.10
2018-03-11T07:18:46.379Z,12.10
2018-03-11T07:21:13.936Z,12.00
2018-03-11T07:23:41.483Z,12.00
2018-03-11T07:26:09.055Z,12.10
2018-03-11T07:28:37.027Z,12.00
2018-03-11T07:31:04.913Z,12.00
2018-03-11T07:33:32.488Z,12.00
2018-03-11T07:36:00.876Z,12.50
2018-03-11T07:38:29.185Z,12.50
2018-03-11T07:40:56.780Z,12.50
2018-03-11T07:43:24.330Z,12.70
2018-03-11T07:45:51.890Z,12.70
2018-03-11T07:48:19.463Z,12.70
2018-03-11T07:50:47.852Z,12.60
2018-03-11T07:53:15.425Z,12.60
2018-03-11T07:55:43.030Z,12.60
2018-03-11T07:58:11.318Z,12.50
2018-03-11T08:00:38.895Z,12.40
2018-03-11T08:03:07.080Z,12.20
2018-03-11T08:05:35.020Z,12.20
2018-03-11T08:08:02.629Z,12.20
2018-03-11T08:10:30.222Z,12.20
2018-03-11T08:12:57.788Z,12.20
2018-03-11T08:15:25.519Z,12.10
2018-03-11T08:17:53.230Z,12.30
2018-03-11T08:20:21.111Z,12.30
2018-03-11T08:22:48.669Z,12.50
2018-03-11T08:25:16.238Z,12.60
2018-03-11T08:27:45.512Z,12.80
2018-03-11T08:30:13.210Z,12.80
2018-03-11T08:32:40.791Z,13.00
2018-03-11T08:35:08.345Z,13.10
2018-03-11T08:37:36.688Z,13.20
2018-03-11T08:40:04.232Z,13.40
2018-03-11T08:42:32.609Z,13.90
2018-03-11T08:45:01.362Z,14.00
2018-03-11T08:47:28.996Z,13.90
2018-03-11T08:49:56.879Z,14.00
2018-03-11T08:52:25.221Z,14.20
2018-03-11T08:54:53.546Z,14.20
2018-03-11T08:57:21.153Z,14.20
2018-03-11T08:59:49.756Z,14.30
2018-03-11T09:02:17.341Z,14.20
2018-03-11T09:04:45.698Z,13.80
2018-03-11T09:07:14.087Z,13.80
2018-03-11T09:09:41.984Z,13.80
2018-03-11T09:12:09.555Z,13.70
2018-03-11T09:14:37.870Z,13.70
2018-03-11T09:17:05.904Z,13.70
2018-03-11T09:19:34.048Z,13.70
2018-03-11T09:22:01.625Z,13.70
2018-03-11T09:24:29.177Z,13.90
2018-03-11T09:26:58.577Z,14.00
2018-03-11T09:29:26.163Z,14.00
2018-03-11T09:31:53.745Z,14.10
2018-03-11T09:34:22.090Z,14.40
2018-03-11T09:36:50.518Z,14.50
2018-03-11T09:39:18.121Z,14.50
2018-03-11T09:41:45.749Z,14.40
2018-03-11T09:44:14.205Z,14.20
2018-03-11T09:46:42.536Z,14.20
2018-03-11T09:49:10.166Z,14.10
2018-03-11T09:51:38.712Z,14.40
2018-03-11T09:54:07.215Z,14.60
2018-03-11T09:56:35.607Z,14.70
2018-03-11T09:59:03.287Z,15.00
2018-03-11T10:01:31.723Z,15.20
2018-03-11T10:03:59.336Z,15.10
2018-03-11T10:06:26.892Z,15.30
2018-03-11T10:08:54.497Z,15.50
2018-03-11T10:11:22.049Z,15.30
2018-03-11T10:13:50.405Z,15.70
2018-03-11T10:16:18.057Z,15.70
2018-03-11T10:18:46.381Z,15.90
2018-03-11T10:21:13.950Z,15.80
2018-03-11T10:23:41.503Z,16.10
2018-03-11T10:26:09.158Z,16.40
2018-03-11T10:28:37.278Z,16.40
2018-03-11T10:31:05.528Z,16.80
2018-03-11T10:33:33.080Z,16.80
2018-03-11T10:36:00.636Z,16.60
2018-03-11T10:38:28.304Z,16.30
2018-03-11T10:40:57.954Z,16.40
2018-03-11T10:43:25.702Z,16.10
2018-03-11T10:45:53.275Z,16.00
2018-03-11T10:48:20.860Z,15.80
2018-03-11T10:50:48.541Z,15.70
2018-03-11T10:53:16.917Z,16.00
2018-03-11T10:55:44.647Z,16.00
2018-03-11T10:58:12.256Z,15.80
2018-03-11T11:00:43.321Z,16.00
2018-03-11T11:06:11.799Z,15.90
2018-03-11T11:08:39.387Z,16.00
2018-03-11T11:11:07.724Z,16.10
2018-03-11T11:13:36.747Z,16.20
2018-03-11T11:16:05.133Z,16.20
2018-03-11T11:18:33.000Z,16.10
2018-03-11T11:21:00.554Z,16.20
2018-03-11T11:23:28.120Z,16.40
2018-03-11T11:25:55.745Z,16.70
2018-03-11T11:28:24.435Z,18.20
2018-03-11T11:30:53.056Z,18.20
2018-03-11T11:33:20.659Z,18.60
2018-03-11T11:35:49.247Z,18.50
2018-03-11T11:38:16.794Z,18.40
2018-03-11T11:40:44.440Z,18.40
2018-03-11T11:43:12.009Z,18.50
2018-03-11T11:45:39.572Z,18.70
2018-03-11T11:48:08.025Z,18.40
2018-03-11T11:50:37.339Z,18.20
2018-03-11T11:53:05.705Z,18.20
2018-03-11T11:55:33.351Z,18.30
2018-03-11T11:58:01.088Z,18.30
2018-03-11T12:00:30.575Z,18.30
2018-03-11T12:02:58.169Z,18.10
2018-03-11T12:05:25.781Z,17.90
2018-03-11T12:07:53.385Z,17.90
2018-03-11T12:10:22.053Z,18.00
2018-03-11T12:12:49.659Z,18.00
2018-03-11T12:15:17.206Z,18.00
2018-03-11T12:17:44.797Z,18.00
2018-03-11T12:20:12.371Z,18.10
2018-03-11T12:22:40.008Z,18.10
2018-03-11T12:25:09.228Z,17.90
2018-03-11T12:27:37.316Z,18.00
2018-03-11T12:30:05.621Z,18.00
2018-03-11T12:32:33.206Z,17.80
2018-03-11T12:35:00.785Z,17.90
2018-03-11T12:37:28.384Z,17.80
2018-03-11T12:39:56.725Z,17.70
2018-03-11T12:42:24.320Z,17.80
2018-03-11T12:44:51.898Z,17.50
2018-03-11T12:47:19.503Z,17.60
2018-03-11T12:49:48.041Z,17.70
2018-03-11T12:52:16.419Z,17.80
2018-03-11T12:54:43.994Z,17.80
2018-03-11T12:57:11.919Z,18.00
2018-03-11T12:59:39.483Z,18.10
2018-03-11T13:02:07.123Z,18.20
2018-03-11T13:04:36.510Z,18.10
2018-03-11T13:07:04.036Z,18.10
2018-03-11T13:09:31.645Z,18.00
2018-03-11T13:11:59.199Z,18.00
2018-03-11T13:14:26.843Z,18.00
2018-03-11T13:16:54.391Z,17.90
2018-03-11T13:19:22.964Z,18.00
2018-03-11T13:21:50.534Z,18.00
2018-03-11T13:24:18.889Z,18.00
2018-03-11T13:26:46.464Z,18.00
2018-03-11T13:29:14.089Z,18.10
2018-03-11T13:31:42.458Z,18.10
2018-03-11T13:34:21.771Z,18.10
2018-03-11T13:36:50.148Z,18.20
2018-03-11T13:39:29.655Z,18.20
2018-03-11T13:41:57.192Z,18.20
2018-03-11T13:44:24.918Z,18.20
2018-03-11T13:47:11.311Z,17.90
2018-03-11T13:49:38.938Z,18.20
2018-03-11T13:55:14.331Z,17.80
2018-03-11T13:58:02.885Z,17.70
2018-03-11T14:00:31.252Z,17.90
2018-03-11T14:02:59.600Z,17.90
2018-03-11T14:05:28.169Z,18.00
2018-03-11T14:07:56.495Z,17.90
2018-03-11T14:10:24.094Z,17.90
2018-03-11T14:12:52.398Z,18.00
2018-03-11T14:15:19.978Z,18.00
2018-03-11T14:17:47.540Z,18.10
2018-03-11T14:20:15.139Z,18.10
2018-03-11T14:22:42.704Z,17.80
2018-03-11T14:25:13.005Z,18.00
2018-03-11T14:27:40.625Z,18.10
2018-03-11T14:30:08.283Z,18.10
2018-03-11T14:32:37.369Z,18.10
2018-03-11T14:35:06.912Z,18.10
2018-03-11T14:37:34.922Z,18.10
2018-03-11T14:40:02.482Z,18.20
2018-03-11T14:42:30.062Z,18.20
2018-03-11T14:44:57.616Z,18.10
2018-03-11T14:47:25.199Z,17.90
2018-03-11T14:49:52.789Z,17.80
2018-03-11T14:52:20.463Z,17.70
2018-03-11T14:54:48.847Z,17.50
2018-03-11T14:57:16.436Z,17.40
2018-03-11T14:59:44.898Z,17.50
2018-03-11T15:02:12.484Z,17.50
2018-03-11T15:04:40.083Z,17.40
2018-03-11T15:07:07.620Z,17.40
2018-03-11T15:09:35.284Z,17.30
2018-03-11T15:12:03.778Z,17.30
2018-03-11T15:14:32.492Z,17.20
2018-03-11T15:17:00.176Z,17.30
2018-03-11T15:19:27.938Z,17.30
2018-03-11T15:21:55.556Z,17.30
2018-03-11T15:24:24.132Z,17.40
2018-03-11T15:26:51.748Z,17.40
2018-03-11T15:29:19.328Z,17.30
2018-03-11T15:31:46.971Z,17.20
2018-03-11T15:34:15.312Z,17.30
2018-03-11T15:36:42.873Z,17.30
2018-03-11T15:39:10.622Z,17.30
2018-03-11T15:41:38.948Z,17.20
2018-03-11T15:44:06.883Z,17.20
2018-03-11T15:46:34.509Z,17.00
2018-03-11T15:49:03.250Z,17.30
2018-03-11T15:51:32.200Z,17.30
2018-03-11T15:53:59.789Z,17.20
2018-03-11T15:56:31.802Z,17.30
2018-03-11T15:59:00.249Z,17.30
2018-03-11T16:01:27.986Z,17.30
2018-03-11T16:03:55.536Z,17.40
2018-03-11T16:06:24.313Z,17.40
2018-03-11T16:08:53.084Z,17.50
2018-03-11T16:11:20.632Z,17.40
2018-03-11T16:13:49.049Z,17.60
2018-03-11T16:16:16.620Z,17.50
2018-03-11T16:18:44.238Z,17.40
2018-03-11T16:21:11.804Z,17.40
2018-03-11T16:23:39.492Z,17.20
2018-03-11T16:26:07.092Z,17.40
2018-03-11T16:28:34.715Z,17.40
2018-03-11T16:31:03.413Z,17.40
2018-03-11T16:33:31.889Z,17.40
2018-03-11T16:36:00.220Z,17.40
2018-03-11T16:38:27.936Z,17.30
2018-03-11T16:40:57.414Z,17.30
2018-03-11T16:43:25.071Z,17.30
2018-03-11T16:45:52.956Z,17.10
2018-03-11T16:48:20.750Z,17.00
2018-03-11T16:50:48.367Z,16.90
2018-03-11T16:53:16.689Z,16.80
2018-03-11T16:55:44.324Z,16.70
2018-03-11T16:58:11.904Z,16.60
2018-03-11T17:00:39.557Z,16.40
2018-03-11T17:03:07.983Z,16.30
2018-03-11T17:05:35.553Z,16.30
2018-03-11T17:08:03.468Z,16.20
2018-03-11T17:10:31.704Z,16.00
2018-03-11T17:13:00.205Z,15.90
2018-03-11T17:15:27.757Z,15.90
2018-03-11T17:17:56.100Z,15.70
2018-03-11T17:20:23.703Z,15.70
2018-03-11T17:22:51.365Z,15.70
2018-03-11T17:25:18.963Z,15.60
2018-03-11T17:27:47.729Z,15.40
2018-03-11T17:30:17.047Z,15.40
2018-03-11T17:32:44.609Z,15.40
2018-03-11T17:35:12.273Z,15.40
2018-03-11T17:37:40.636Z,15.10
2018-03-11T17:40:08.249Z,15.10
2018-03-11T17:42:36.687Z,15.00
2018-03-11T17:45:04.536Z,15.00
2018-03-11T17:47:32.990Z,14.90
2018-03-11T17:50:01.290Z,14.90
2018-03-11T17:52:28.974Z,15.10
2018-03-11T17:54:56.557Z,14.90
2018-03-11T17:57:24.291Z,14.90
2018-03-11T17:59:52.831Z,14.80
2018-03-11T18:02:20.440Z,14.80
2018-03-11T18:04:48.111Z,14.70
2018-03-11T18:07:15.888Z,14.70
2018-03-11T18:09:44.278Z,14.70
2018-03-11T18:12:11.843Z,14.70
2018-03-11T18:14:39.449Z,14.60
2018-03-11T18:17:07.030Z,14.60
2018-03-11T18:19:35.237Z,14.60
2018-03-11T18:22:03.739Z,14.50
2018-03-11T18:24:32.533Z,14.50
2018-03-11T18:27:00.195Z,14.50
2018-03-11T18:29:28.388Z,14.50
2018-03-11T18:31:56.762Z,14.30
2018-03-11T18:34:24.519Z,14.30
2018-03-11T18:36:52.136Z,14.30
2018-03-11T18:39:19.846Z,14.30
2018-03-11T18:41:47.445Z,14.30
2018-03-11T18:44:15.877Z,14.30
2018-03-11T18:46:43.539Z,14.30
2018-03-11T18:49:11.139Z,14.30
2018-03-11T18:51:39.925Z,14.30
2018-03-11T18:54:07.521Z,14.20
2018-03-11T18:56:35.910Z,14.20
2018-03-11T18:59:03.559Z,14.20
2018-03-11T19:01:31.922Z,14.20
2018-03-11T19:03:59.518Z,14.10
2018-03-11T19:06:27.909Z,14.00
2018-03-11T19:08:55.880Z,14.00
2018-03-11T19:11:23.652Z,13.90
2018-03-11T19:13:51.306Z,13.80
2018-03-11T19:16:18.884Z,13.70
2018-03-11T19:18:47.358Z,13.60
2018-03-11T19:21:15.054Z,13.60
2018-03-11T19:23:42.737Z,13.50
2018-03-11T19:26:11.097Z,13.20
2018-03-11T19:28:38.783Z,13.40
2018-03-11T19:31:06.409Z,13.40
2018-03-11T19:33:34.042Z,13.20
2018-03-11T19:36:02.250Z,13.20
2018-03-11T19:38:29.891Z,13.10
2018-03-11T19:40:58.626Z,13.20
2018-03-11T19:43:26.254Z,13.20
2018-03-11T19:45:53.784Z,13.00
2018-03-11T19:48:21.383Z,12.90
2018-03-11T19:50:48.998Z,12.80
2018-03-11T19:53:16.641Z,12.80
2018-03-11T19:55:44.376Z,12.70
2018-03-11T19:58:12.355Z,12.80
2018-03-11T20:00:39.963Z,12.70
2018-03-11T20:03:07.512Z,12.70
2018-03-11T20:05:35.300Z,12.60
2018-03-11T20:08:04.162Z,12.40
2018-03-11T20:10:32.391Z,12.50
2018-03-11T20:13:01.244Z,12.40
2018-03-11T20:15:28.831Z,12.40
2018-03-11T20:17:56.427Z,12.30
2018-03-11T20:20:24.456Z,12.30
2018-03-11T20:22:52.047Z,12.30
2018-03-11T20:25:20.396Z,12.20
2018-03-11T20:27:48.788Z,12.20
2018-03-11T20:30:16.714Z,12.10
2018-03-11T20:32:45.776Z,12.00
2018-03-11T20:35:13.344Z,12.00
2018-03-11T20:37:42.010Z,11.90
2018-03-11T20:40:09.732Z,11.90
2018-03-11T20:42:37.303Z,11.90
2018-03-11T20:45:05.735Z,11.70
2018-03-11T20:47:34.523Z,11.90
2018-03-11T20:50:03.022Z,11.80
2018-03-11T20:52:31.332Z,11.80
2018-03-11T20:54:58.958Z,11.80
2018-03-11T20:57:26.535Z,11.80
2018-03-11T20:59:54.133Z,11.80
2018-03-11T21:02:21.691Z,11.80
2018-03-11T21:04:49.671Z,11.80
2018-03-11T21:07:18.092Z,11.80
2018-03-11T21:09:45.732Z,11.80
2018-03-11T21:12:13.285Z,11.80
2018-03-11T21:14:43.015Z,11.80
2018-03-11T21:17:10.590Z,11.70
2018-03-11T21:19:38.501Z,11.70
2018-03-11T21:22:07.006Z,11.50
2018-03-11T21:24:34.601Z,11.70
2018-03-11T21:27:02.987Z,11.70
2018-03-11T21:29:31.120Z,11.70
2018-03-11T21:31:59.466Z,11.70
2018-03-11T21:34:27.064Z,11.70
2018-03-11T21:36:54.699Z,11.70
2018-03-11T21:39:22.279Z,11.70
2018-03-11T21:41:49.864Z,11.70
2018-03-11T21:44:18.200Z,11.80
2018-03-11T21:46:45.808Z,11.70
2018-03-11T21:49:13.358Z,11.80
2018-03-11T21:51:40.897Z,11.70
2018-03-11T21:54:08.487Z,11.80
2018-03-11T21:56:36.805Z,11.70
2018-03-11T21:59:04.432Z,11.70
2018-03-11T22:01:32.534Z,11.80
2018-03-11T22:04:01.191Z,11.80
2018-03-11T22:06:29.580Z,11.80
2018-03-11T22:08:57.183Z,11.70
2018-03-11T22:11:24.743Z,11.80
2018-03-11T22:13:53.117Z,11.70
2018-03-11T22:16:21.428Z,11.90
2018-03-11T22:18:49.952Z,11.90
2018-03-11T22:21:17.602Z,11.90
2018-03-11T22:23:45.159Z,11.90
2018-03-11T22:26:12.776Z,11.90
2018-03-11T22:28:41.092Z,12.00
2018-03-11T22:31:08.685Z,12.00
2018-03-11T22:33:37.036Z,11.90
2018-03-11T22:36:05.502Z,11.90
2018-03-11T22:38:33.907Z,11.70
2018-03-11T22:41:02.658Z,11.70
2018-03-11T22:43:30.453Z,11.70
2018-03-11T22:45:58.023Z,11.70
2018-03-11T22:48:25.585Z,11.70
2018-03-11T22:50:53.201Z,11.80
2018-03-11T22:53:21.521Z,11.60
2018-03-11T22:55:49.074Z,11.70
2018-03-11T22:58:16.692Z,11.60
2018-03-11T23:00:44.388Z,11.60
2018-03-11T23:03:11.965Z,11.60
2018-03-11T23:05:39.568Z,11.60
2018-03-11T23:08:07.155Z,11.70
2018-03-11T23:10:34.723Z,11.60
2018-03-11T23:13:03.030Z,11.60
2018-03-11T23:15:31.281Z,11.70
2018-03-11T23:17:59.626Z,11.70
2018-03-11T23:20:28.281Z,11.70
2018-03-11T23:22:56.643Z,11.70
2018-03-11T23:25:24.264Z,11.70
2018-03-11T23:27:52.626Z,11.70
2018-03-11T23:30:20.201Z,11.60
2018-03-11T23:32:47.781Z,11.60
2018-03-11T23:35:15.406Z,11.60
2018-03-11T23:37:43.037Z,11.70
2018-03-11T23:40:11.407Z,11.70
2018-03-11T23:42:39.771Z,11.60
2018-03-11T23:45:08.102Z,11.60
2018-03-11T23:47:36.671Z,11.60
2018-03-11T23:50:04.342Z,11.60
2018-03-11T23:52:33.243Z,11.60
2018-03-11T23:55:01.439Z,11.60
2018-03-11T23:57:29.430Z,11.60
2018-03-11T23:59:57.718Z,11.60
